RYR5763 EGKK-EDDM
Flight info
| Callsign | RYR5763 |
|---|---|
| Flight time | N/A |
| Altitude | 41000 |
| Route | BOGNA L612 BENBO UL612 VEULE DCT TEPRI UN491 POGZI DCT GELTA DCT LUVAL DCT BEGAR DCT TRA DCT NUNRI T103 BETOS BETOS1B |
| Aircraft | B738/M-SDE2E3FGHIRWXY/LB1 |
Departure
| Time | 2026-04-19 09:55 |
|---|---|
| Airport | London Gatwick Airport (EGKK) |
Arrival
| Time | N/A |
|---|---|
| Airport | Munich Airport (EDDM) |
| Time | Latitude | Longitude | Altitude | Speed | Heading |
|---|---|---|---|---|---|
| 2026-04-19 09:27 | 51.15475 | -0.18947 | 199 ft | 0 kts | 258° |
| 2026-04-19 09:43 | 51.15476 | -0.18940 | 199 ft | 2 kts | 258° |
| 2026-04-19 09:43 | 51.15479 | -0.18917 | 199 ft | 2 kts | 258° |
| 2026-04-19 09:44 | 51.15482 | -0.18893 | 199 ft | 2 kts | 258° |
| 2026-04-19 09:44 | 51.15485 | -0.18870 | 199 ft | 2 kts | 258° |
| 2026-04-19 09:44 | 51.15488 | -0.18847 | 199 ft | 2 kts | 258° |
| 2026-04-19 09:44 | 51.15491 | -0.18829 | 199 ft | 0 kts | 258° |
| 2026-04-19 09:45 | 51.15493 | -0.18816 | 199 ft | 1 kts | 216° |
| 2026-04-19 09:45 | 51.15501 | -0.18812 | 199 ft | 0 kts | 171° |
| 2026-04-19 09:45 | 51.15507 | -0.18815 | 199 ft | 1 kts | 167° |
| 2026-04-19 09:45 | 51.15509 | -0.18816 | 199 ft | 0 kts | 167° |
| 2026-04-19 09:48 | 51.15499 | -0.18812 | 199 ft | 2 kts | 167° |
| 2026-04-19 09:48 | 51.15472 | -0.18803 | 199 ft | 5 kts | 168° |
| 2026-04-19 09:48 | 51.15372 | -0.18768 | 199 ft | 23 kts | 167° |
| 2026-04-19 09:48 | 51.15232 | -0.18719 | 199 ft | 18 kts | 168° |
| 2026-04-19 09:49 | 51.15153 | -0.18641 | 199 ft | 11 kts | 104° |
| 2026-04-19 09:49 | 51.15152 | -0.18531 | 199 ft | 8 kts | 84° |
| 2026-04-19 09:49 | 51.15171 | -0.18356 | 199 ft | 23 kts | 79° |
| 2026-04-19 09:49 | 51.15202 | -0.18127 | 199 ft | 19 kts | 77° |
| 2026-04-19 09:50 | 51.15229 | -0.17932 | 199 ft | 16 kts | 77° |
| 2026-04-19 09:50 | 51.15252 | -0.17761 | 199 ft | 14 kts | 77° |
| 2026-04-19 09:50 | 51.15278 | -0.17581 | 199 ft | 19 kts | 78° |
| 2026-04-19 09:50 | 51.15291 | -0.17405 | 199 ft | 12 kts | 108° |
| 2026-04-19 09:51 | 51.15234 | -0.17309 | 199 ft | 12 kts | 143° |
| 2026-04-19 09:51 | 51.15178 | -0.17210 | 199 ft | 10 kts | 93° |
| 2026-04-19 09:51 | 51.15190 | -0.17112 | 199 ft | 7 kts | 77° |
| 2026-04-19 09:51 | 51.15203 | -0.17019 | 199 ft | 14 kts | 78° |
| 2026-04-19 09:52 | 51.15210 | -0.16964 | 199 ft | 1 kts | 78° |
| 2026-04-19 09:52 | 51.15214 | -0.16927 | 199 ft | 1 kts | 78° |
| 2026-04-19 09:52 | 51.15215 | -0.16922 | 199 ft | 0 kts | 78° |
| 2026-04-19 09:54 | 51.15212 | -0.16830 | 199 ft | 16 kts | 118° |
| 2026-04-19 09:54 | 51.15138 | -0.16750 | 199 ft | 8 kts | 199° |
| 2026-04-19 09:54 | 51.15104 | -0.16889 | 199 ft | 46 kts | 255° |
| 2026-04-19 09:55 | 51.14937 | -0.18123 | 199 ft | 173 kts | 258° |
| 2026-04-19 09:55 | 51.14645 | -0.20505 | 449 ft | 256 kts | 262° |
| 2026-04-19 09:55 | 51.14339 | -0.23603 | 1286 ft | 304 kts | 261° |
| 2026-04-19 09:55 | 51.13871 | -0.26780 | 3293 ft | 301 kts | 258° |
| 2026-04-19 09:56 | 51.13408 | -0.29721 | 5282 ft | 248 kts | 259° |
| 2026-04-19 09:56 | 51.13044 | -0.32060 | 5785 ft | 206 kts | 261° |
| 2026-04-19 09:56 | 51.12724 | -0.34202 | 5853 ft | 196 kts | 261° |
| 2026-04-19 09:56 | 51.12404 | -0.36451 | 6262 ft | 221 kts | 261° |
| 2026-04-19 09:57 | 51.12054 | -0.38890 | 7390 ft | 237 kts | 255° |
| 2026-04-19 09:57 | 51.11218 | -0.41134 | 8588 ft | 256 kts | 229° |
| 2026-04-19 09:57 | 51.09632 | -0.42579 | 9056 ft | 277 kts | 199° |
| 2026-04-19 09:57 | 51.07657 | -0.42573 | 9308 ft | 290 kts | 174° |
| 2026-04-19 09:58 | 51.05702 | -0.41913 | 9563 ft | 289 kts | 175° |
| 2026-04-19 09:58 | 51.03714 | -0.41462 | 9813 ft | 288 kts | 179° |
| 2026-04-19 09:58 | 51.01737 | -0.41137 | 10061 ft | 288 kts | 180° |
| 2026-04-19 09:58 | 50.99737 | -0.40846 | 10312 ft | 288 kts | 180° |
| 2026-04-19 09:59 | 50.97764 | -0.40575 | 10558 ft | 288 kts | 181° |
| 2026-04-19 09:59 | 50.95775 | -0.40310 | 10808 ft | 288 kts | 181° |
| 2026-04-19 09:59 | 50.93761 | -0.40047 | 11061 ft | 288 kts | 181° |
| 2026-04-19 09:59 | 50.91779 | -0.39792 | 11311 ft | 293 kts | 181° |
| 2026-04-19 10:00 | 50.89642 | -0.39532 | 11575 ft | 325 kts | 181° |
| 2026-04-19 10:00 | 50.87318 | -0.39245 | 11890 ft | 343 kts | 180° |
| 2026-04-19 10:00 | 50.84921 | -0.38918 | 12263 ft | 348 kts | 178° |
| 2026-04-19 10:00 | 50.82582 | -0.37915 | 12623 ft | 360 kts | 160° |
| 2026-04-19 10:01 | 50.80407 | -0.35851 | 13015 ft | 367 kts | 151° |
| 2026-04-19 10:01 | 50.78291 | -0.33591 | 13389 ft | 370 kts | 152° |
| 2026-04-19 10:01 | 50.76161 | -0.31370 | 13759 ft | 372 kts | 152° |
| 2026-04-19 10:01 | 50.73973 | -0.29104 | 14137 ft | 374 kts | 152° |
| 2026-04-19 10:02 | 50.71809 | -0.26865 | 14509 ft | 376 kts | 152° |
| 2026-04-19 10:02 | 50.69713 | -0.24697 | 14868 ft | 379 kts | 152° |
| 2026-04-19 10:02 | 50.67502 | -0.22379 | 15363 ft | 379 kts | 152° |
| 2026-04-19 10:02 | 50.65302 | -0.20065 | 16128 ft | 385 kts | 153° |
| 2026-04-19 10:03 | 50.63084 | -0.17746 | 16870 ft | 391 kts | 153° |
| 2026-04-19 10:03 | 50.60820 | -0.15381 | 17617 ft | 396 kts | 153° |
| 2026-04-19 10:03 | 50.58499 | -0.12959 | 18375 ft | 401 kts | 153° |
| 2026-04-19 10:03 | 50.56168 | -0.10530 | 19127 ft | 406 kts | 154° |
| 2026-04-19 10:04 | 50.53799 | -0.08066 | 19880 ft | 411 kts | 154° |
| 2026-04-19 10:04 | 50.51432 | -0.05611 | 20624 ft | 416 kts | 154° |
| 2026-04-19 10:04 | 50.49002 | -0.03095 | 21379 ft | 421 kts | 154° |
| 2026-04-19 10:04 | 50.46576 | -0.00585 | 22123 ft | 426 kts | 155° |
| 2026-04-19 10:05 | 50.44076 | 0.01999 | 22881 ft | 431 kts | 155° |
| 2026-04-19 10:05 | 50.41578 | 0.04577 | 23629 ft | 436 kts | 155° |
| 2026-04-19 10:05 | 50.39045 | 0.07189 | 24379 ft | 441 kts | 155° |
| 2026-04-19 10:05 | 50.36474 | 0.09839 | 25133 ft | 445 kts | 156° |
| 2026-04-19 10:06 | 50.33898 | 0.12491 | 25881 ft | 448 kts | 156° |
| 2026-04-19 10:06 | 50.31310 | 0.15153 | 26629 ft | 450 kts | 156° |
| 2026-04-19 10:06 | 50.28709 | 0.17825 | 27376 ft | 451 kts | 156° |
| 2026-04-19 10:06 | 50.26091 | 0.20511 | 28126 ft | 452 kts | 157° |
| 2026-04-19 10:07 | 50.23478 | 0.23190 | 28874 ft | 452 kts | 157° |
| 2026-04-19 10:07 | 50.20872 | 0.25858 | 29620 ft | 452 kts | 158° |
| 2026-04-19 10:07 | 50.18239 | 0.28556 | 30376 ft | 451 kts | 158° |
| 2026-04-19 10:07 | 50.15638 | 0.31229 | 31125 ft | 450 kts | 158° |
| 2026-04-19 10:08 | 50.13067 | 0.33867 | 31869 ft | 448 kts | 158° |
| 2026-04-19 10:08 | 50.10485 | 0.36513 | 32619 ft | 445 kts | 159° |
| 2026-04-19 10:08 | 50.07924 | 0.39133 | 33366 ft | 443 kts | 159° |
| 2026-04-19 10:08 | 50.05357 | 0.41737 | 34120 ft | 439 kts | 160° |
| 2026-04-19 10:09 | 50.02809 | 0.44277 | 34871 ft | 434 kts | 161° |
| 2026-04-19 10:09 | 50.00281 | 0.46747 | 35620 ft | 430 kts | 161° |
| 2026-04-19 10:09 | 49.97806 | 0.49224 | 36363 ft | 431 kts | 158° |
| 2026-04-19 10:09 | 49.95425 | 0.52120 | 37118 ft | 437 kts | 151° |
| 2026-04-19 10:10 | 49.93189 | 0.55192 | 37862 ft | 428 kts | 154° |
| 2026-04-19 10:10 | 49.90807 | 0.57763 | 38616 ft | 404 kts | 165° |
| 2026-04-19 10:10 | 49.88390 | 0.59633 | 39360 ft | 390 kts | 168° |
| 2026-04-19 10:10 | 49.86034 | 0.61763 | 40108 ft | 399 kts | 158° |
| 2026-04-19 10:11 | 49.83954 | 0.64572 | 40847 ft | 408 kts | 147° |
| 2026-04-19 10:11 | 49.82040 | 0.67731 | 41310 ft | 411 kts | 146° |
| 2026-04-19 10:11 | 49.80092 | 0.70987 | 41311 ft | 418 kts | 146° |
| 2026-04-19 10:12 | 49.76208 | 0.77457 | 41298 ft | 429 kts | 146° |
| 2026-04-19 10:12 | 49.72077 | 0.84387 | 41296 ft | 441 kts | 145° |
| 2026-04-19 10:13 | 49.67876 | 0.91442 | 41295 ft | 452 kts | 144° |
| 2026-04-19 10:13 | 49.63588 | 0.98636 | 41290 ft | 461 kts | 144° |
| 2026-04-19 10:14 | 49.59314 | 1.05882 | 41246 ft | 454 kts | 143° |
| 2026-04-19 10:14 | 49.57195 | 1.09376 | 40943 ft | 444 kts | 148° |
| 2026-04-19 10:14 | 49.54830 | 1.12267 | 39876 ft | 433 kts | 164° |
| 2026-04-19 10:14 | 49.52091 | 1.13630 | 37892 ft | 417 kts | 192° |
| 2026-04-19 10:15 | 49.49566 | 1.12327 | 35640 ft | 385 kts | 232° |
| 2026-04-19 10:15 | 49.48883 | 1.08727 | 34119 ft | 377 kts | 281° |
| 2026-04-19 10:15 | 49.50811 | 1.05871 | 32961 ft | 441 kts | 334° |
| 2026-04-19 10:15 | 49.53965 | 1.06781 | 31242 ft | 526 kts | 29° |
| 2026-04-19 10:16 | 49.56783 | 1.09988 | 29621 ft | 506 kts | 15° |
| 2026-04-19 10:16 | 49.59531 | 1.13382 | 24726 ft | 570 kts | 39° |
| 2026-04-19 10:16 | 49.62064 | 1.17019 | 27703 ft | 450 kts | 33° |
| 2026-04-19 10:16 | 49.63954 | 1.20182 | 29349 ft | 395 kts | 54° |
| 2026-04-19 10:17 | 49.64876 | 1.24209 | 28396 ft | 418 kts | 82° |
| 2026-04-19 10:17 | 49.64466 | 1.28684 | 26367 ft | 438 kts | 127° |
| 2026-04-19 10:17 | 49.62283 | 1.31249 | 23048 ft | 441 kts | 182° |
| 2026-04-19 10:17 | 49.59351 | 1.31124 | 21985 ft | 411 kts | 190° |